sensor_id;sensor_type;location;lat;lon;timestamp;temperature;humidity
65462;DHT22;53236;43.666;18.444;2023-02-04T00:00:26;2.30;99.90
65462;DHT22;53236;43.666;18.444;2023-02-04T00:02:53;2.10;99.90
65462;DHT22;53236;43.666;18.444;2023-02-04T00:05:19;2.10;99.90
65462;DHT22;53236;43.666;18.444;2023-02-04T00:07:46;2.10;99.90
65462;DHT22;53236;43.666;18.444;2023-02-04T00:10:12;2.10;99.90
65462;DHT22;53236;43.666;18.444;2023-02-04T00:12:38;2.10;99.90
65462;DHT22;53236;43.666;18.444;2023-02-04T00:15:04;2.00;99.90
65462;DHT22;53236;43.666;18.444;2023-02-04T00:17:30;2.00;99.90
65462;DHT22;53236;43.666;18.444;2023-02-04T00:19:55;1.90;99.90
65462;DHT22;53236;43.666;18.444;2023-02-04T00:22:21;1.80;99.90
65462;DHT22;53236;43.666;18.444;2023-02-04T00:24:47;1.80;99.90
65462;DHT22;53236;43.666;18.444;2023-02-04T00:27:14;1.80;99.90
65462;DHT22;53236;43.666;18.444;2023-02-04T00:29:40;1.80;99.90
65462;DHT22;53236;43.666;18.444;2023-02-04T00:32:06;1.70;99.90
65462;DHT22;53236;43.666;18.444;2023-02-04T00:34:32;1.60;99.90
65462;DHT22;53236;43.666;18.444;2023-02-04T00:36:57;1.60;99.90
65462;DHT22;53236;43.666;18.444;2023-02-04T00:39:23;1.60;99.90
65462;DHT22;53236;43.666;18.444;2023-02-04T00:41:49;1.50;99.90
65462;DHT22;53236;43.666;18.444;2023-02-04T00:44:15;1.70;99.90
65462;DHT22;53236;43.666;18.444;2023-02-04T00:46:41;1.70;99.90
65462;DHT22;53236;43.666;18.444;2023-02-04T00:49:07;1.70;99.90
65462;DHT22;53236;43.666;18.444;2023-02-04T00:51:36;1.80;99.90
65462;DHT22;53236;43.666;18.444;2023-02-04T00:54:02;1.80;99.90
65462;DHT22;53236;43.666;18.444;2023-02-04T00:56:28;1.80;99.90
65462;DHT22;53236;43.666;18.444;2023-02-04T00:58:54;1.70;99.90
65462;DHT22;53236;43.666;18.444;2023-02-04T01:01:19;1.80;99.90
65462;DHT22;53236;43.666;18.444;2023-02-04T01:03:45;1.80;99.90
65462;DHT22;53236;43.666;18.444;2023-02-04T01:06:11;1.80;99.90
65462;DHT22;53236;43.666;18.444;2023-02-04T01:08:36;1.90;99.90
65462;DHT22;53236;43.666;18.444;2023-02-04T01:11:02;2.00;99.90
65462;DHT22;53236;43.666;18.444;2023-02-04T01:13:28;2.00;99.90
65462;DHT22;53236;43.666;18.444;2023-02-04T01:15:54;1.90;99.90
65462;DHT22;53236;43.666;18.444;2023-02-04T01:18:19;1.90;99.90
65462;DHT22;53236;43.666;18.444;2023-02-04T01:20:45;1.90;99.90
65462;DHT22;53236;43.666;18.444;2023-02-04T01:23:11;1.90;99.90
65462;DHT22;53236;43.666;18.444;2023-02-04T01:25:37;1.90;99.90
65462;DHT22;53236;43.666;18.444;2023-02-04T01:28:02;1.90;99.90
65462;DHT22;53236;43.666;18.444;2023-02-04T01:30:28;1.90;99.90
65462;DHT22;53236;43.666;18.444;2023-02-04T01:32:54;1.80;99.90
65462;DHT22;53236;43.666;18.444;2023-02-04T01:35:20;1.70;99.90
65462;DHT22;53236;43.666;18.444;2023-02-04T01:37:45;1.60;99.90
65462;DHT22;53236;43.666;18.444;2023-02-04T01:40:11;1.50;99.90
65462;DHT22;53236;43.666;18.444;2023-02-04T01:42:37;1.50;99.90
65462;DHT22;53236;43.666;18.444;2023-02-04T01:45:04;1.50;99.90
65462;DHT22;53236;43.666;18.444;2023-02-04T01:47:33;1.50;99.90
65462;DHT22;53236;43.666;18.444;2023-02-04T01:49:59;1.50;99.90
65462;DHT22;53236;43.666;18.444;2023-02-04T01:52:35;1.60;99.90
65462;DHT22;53236;43.666;18.444;2023-02-04T01:55:02;1.60;99.90
65462;DHT22;53236;43.666;18.444;2023-02-04T01:57:28;1.60;99.90
65462;DHT22;53236;43.666;18.444;2023-02-04T01:59:55;1.70;99.90
65462;DHT22;53236;43.666;18.444;2023-02-04T02:02:47;1.70;99.90
65462;DHT22;53236;43.666;18.444;2023-02-04T02:05:17;1.70;99.90
65462;DHT22;53236;43.666;18.444;2023-02-04T02:07:49;1.80;99.90
65462;DHT22;53236;43.666;18.444;2023-02-04T02:10:17;1.80;99.90
65462;DHT22;53236;43.666;18.444;2023-02-04T02:12:43;1.70;99.90
65462;DHT22;53236;43.666;18.444;2023-02-04T02:15:10;1.70;99.90
65462;DHT22;53236;43.666;18.444;2023-02-04T02:17:37;1.70;99.90
65462;DHT22;53236;43.666;18.444;2023-02-04T02:20:06;1.70;99.90
65462;DHT22;53236;43.666;18.444;2023-02-04T02:25:13;1.80;99.90
65462;DHT22;53236;43.666;18.444;2023-02-04T02:27:40;1.70;99.90
65462;DHT22;53236;43.666;18.444;2023-02-04T02:30:07;1.70;99.90
65462;DHT22;53236;43.666;18.444;2023-02-04T02:32:34;1.80;99.90
65462;DHT22;53236;43.666;18.444;2023-02-04T02:35:00;1.70;99.90
65462;DHT22;53236;43.666;18.444;2023-02-04T02:37:26;1.80;99.90
65462;DHT22;53236;43.666;18.444;2023-02-04T02:39:52;1.60;99.90
65462;DHT22;53236;43.666;18.444;2023-02-04T02:42:19;1.60;99.90
65462;DHT22;53236;43.666;18.444;2023-02-04T02:44:46;1.70;99.90
65462;DHT22;53236;43.666;18.444;2023-02-04T02:47:19;1.70;99.90
65462;DHT22;53236;43.666;18.444;2023-02-04T02:49:47;1.70;99.90
65462;DHT22;53236;43.666;18.444;2023-02-04T02:52:13;1.70;99.90
65462;DHT22;53236;43.666;18.444;2023-02-04T02:54:39;1.60;99.90
65462;DHT22;53236;43.666;18.444;2023-02-04T02:57:20;1.70;99.90
65462;DHT22;53236;43.666;18.444;2023-02-04T02:59:47;1.70;99.90
65462;DHT22;53236;43.666;18.444;2023-02-04T03:02:18;1.60;99.90
65462;DHT22;53236;43.666;18.444;2023-02-04T03:04:52;1.60;99.90
65462;DHT22;53236;43.666;18.444;2023-02-04T03:07:20;1.70;99.90
65462;DHT22;53236;43.666;18.444;2023-02-04T03:09:47;1.70;99.90
65462;DHT22;53236;43.666;18.444;2023-02-04T03:12:13;1.80;99.90
65462;DHT22;53236;43.666;18.444;2023-02-04T03:14:40;1.80;99.90
65462;DHT22;53236;43.666;18.444;2023-02-04T03:17:08;1.90;99.90
65462;DHT22;53236;43.666;18.444;2023-02-04T03:19:35;1.90;99.90
65462;DHT22;53236;43.666;18.444;2023-02-04T03:22:02;2.00;99.90
65462;DHT22;53236;43.666;18.444;2023-02-04T03:24:29;1.90;99.90
65462;DHT22;53236;43.666;18.444;2023-02-04T03:26:55;1.80;99.90
65462;DHT22;53236;43.666;18.444;2023-02-04T03:29:21;1.80;99.90
65462;DHT22;53236;43.666;18.444;2023-02-04T03:31:46;1.80;99.90
65462;DHT22;53236;43.666;18.444;2023-02-04T03:34:12;1.90;99.90
65462;DHT22;53236;43.666;18.444;2023-02-04T03:36:38;1.90;99.90
65462;DHT22;53236;43.666;18.444;2023-02-04T03:39:03;1.90;99.90
65462;DHT22;53236;43.666;18.444;2023-02-04T03:41:29;1.90;99.90
65462;DHT22;53236;43.666;18.444;2023-02-04T03:43:55;2.00;99.90
65462;DHT22;53236;43.666;18.444;2023-02-04T03:46:21;2.00;99.90
65462;DHT22;53236;43.666;18.444;2023-02-04T03:48:48;1.90;99.90
65462;DHT22;53236;43.666;18.444;2023-02-04T03:51:14;2.00;99.90
65462;DHT22;53236;43.666;18.444;2023-02-04T03:53:39;2.00;99.90
65462;DHT22;53236;43.666;18.444;2023-02-04T03:56:05;2.00;99.90
65462;DHT22;53236;43.666;18.444;2023-02-04T03:58:31;2.00;99.90
65462;DHT22;53236;43.666;18.444;2023-02-04T04:00:57;2.10;99.90
65462;DHT22;53236;43.666;18.444;2023-02-04T04:03:23;2.10;99.90
65462;DHT22;53236;43.666;18.444;2023-02-04T04:05:48;2.10;99.90
65462;DHT22;53236;43.666;18.444;2023-02-04T04:08:14;2.10;99.90
65462;DHT22;53236;43.666;18.444;2023-02-04T04:10:40;2.20;99.90
65462;DHT22;53236;43.666;18.444;2023-02-04T04:13:05;2.30;99.90
65462;DHT22;53236;43.666;18.444;2023-02-04T04:15:31;2.50;99.90
65462;DHT22;53236;43.666;18.444;2023-02-04T04:17:57;2.40;99.90
65462;DHT22;53236;43.666;18.444;2023-02-04T04:20:23;2.50;99.90
65462;DHT22;53236;43.666;18.444;2023-02-04T04:22:52;2.50;99.90
65462;DHT22;53236;43.666;18.444;2023-02-04T04:25:18;2.40;99.90
65462;DHT22;53236;43.666;18.444;2023-02-04T04:27:44;2.20;99.90
65462;DHT22;53236;43.666;18.444;2023-02-04T04:30:10;2.20;99.90
65462;DHT22;53236;43.666;18.444;2023-02-04T04:32:36;2.20;99.90
65462;DHT22;53236;43.666;18.444;2023-02-04T04:35:02;2.10;99.90
65462;DHT22;53236;43.666;18.444;2023-02-04T04:37:28;2.10;99.90
65462;DHT22;53236;43.666;18.444;2023-02-04T04:39:54;2.00;99.90
65462;DHT22;53236;43.666;18.444;2023-02-04T04:42:20;2.00;99.90
65462;DHT22;53236;43.666;18.444;2023-02-04T04:44:45;2.00;99.90
65462;DHT22;53236;43.666;18.444;2023-02-04T04:47:11;2.00;99.90
65462;DHT22;53236;43.666;18.444;2023-02-04T04:49:37;2.00;99.90
65462;DHT22;53236;43.666;18.444;2023-02-04T04:52:02;2.00;99.90
65462;DHT22;53236;43.666;18.444;2023-02-04T04:54:28;2.00;99.90
65462;DHT22;53236;43.666;18.444;2023-02-04T04:56:54;2.00;99.90
65462;DHT22;53236;43.666;18.444;2023-02-04T04:59:20;1.90;99.90
65462;DHT22;53236;43.666;18.444;2023-02-04T05:01:45;1.90;99.90
65462;DHT22;53236;43.666;18.444;2023-02-04T05:04:11;2.00;99.90
65462;DHT22;53236;43.666;18.444;2023-02-04T05:06:37;2.00;99.90
65462;DHT22;53236;43.666;18.444;2023-02-04T05:09:02;2.00;99.90
65462;DHT22;53236;43.666;18.444;2023-02-04T05:11:28;2.10;99.90
65462;DHT22;53236;43.666;18.444;2023-02-04T05:13:54;2.10;99.90
65462;DHT22;53236;43.666;18.444;2023-02-04T05:16:19;2.00;99.90
65462;DHT22;53236;43.666;18.444;2023-02-04T05:18:45;1.90;99.90
65462;DHT22;53236;43.666;18.444;2023-02-04T05:21:11;1.90;99.90
65462;DHT22;53236;43.666;18.444;2023-02-04T05:23:36;1.90;99.90
65462;DHT22;53236;43.666;18.444;2023-02-04T05:26:02;1.90;99.90
65462;DHT22;53236;43.666;18.444;2023-02-04T05:28:28;1.90;99.90
65462;DHT22;53236;43.666;18.444;2023-02-04T05:30:53;2.00;99.90
65462;DHT22;53236;43.666;18.444;2023-02-04T05:33:19;2.00;99.90
65462;DHT22;53236;43.666;18.444;2023-02-04T05:35:45;2.00;99.90
65462;DHT22;53236;43.666;18.444;2023-02-04T05:38:11;2.00;99.90
65462;DHT22;53236;43.666;18.444;2023-02-04T05:40:36;2.00;99.90
65462;DHT22;53236;43.666;18.444;2023-02-04T05:43:02;2.00;99.90
65462;DHT22;53236;43.666;18.444;2023-02-04T05:45:29;2.00;99.90
65462;DHT22;53236;43.666;18.444;2023-02-04T05:47:55;2.00;99.90
65462;DHT22;53236;43.666;18.444;2023-02-04T05:50:20;1.90;99.90
65462;DHT22;53236;43.666;18.444;2023-02-04T05:52:46;1.90;99.90
65462;DHT22;53236;43.666;18.444;2023-02-04T05:55:12;1.90;99.90
65462;DHT22;53236;43.666;18.444;2023-02-04T05:57:38;2.00;99.90
65462;DHT22;53236;43.666;18.444;2023-02-04T06:00:05;2.00;99.90
65462;DHT22;53236;43.666;18.444;2023-02-04T06:02:31;2.00;99.90
65462;DHT22;53236;43.666;18.444;2023-02-04T06:04:56;2.10;99.90
65462;DHT22;53236;43.666;18.444;2023-02-04T06:07:22;2.00;99.90
65462;DHT22;53236;43.666;18.444;2023-02-04T06:09:48;2.00;99.90
65462;DHT22;53236;43.666;18.444;2023-02-04T06:12:13;2.00;99.90
65462;DHT22;53236;43.666;18.444;2023-02-04T06:14:39;2.00;99.90
65462;DHT22;53236;43.666;18.444;2023-02-04T06:17:05;2.00;99.90
65462;DHT22;53236;43.666;18.444;2023-02-04T06:19:30;2.10;99.90
65462;DHT22;53236;43.666;18.444;2023-02-04T06:21:56;2.00;99.90
65462;DHT22;53236;43.666;18.444;2023-02-04T06:24:22;2.00;99.90
65462;DHT22;53236;43.666;18.444;2023-02-04T06:26:47;2.10;99.90
65462;DHT22;53236;43.666;18.444;2023-02-04T06:29:13;2.10;99.90
65462;DHT22;53236;43.666;18.444;2023-02-04T06:31:39;2.10;99.90
65462;DHT22;53236;43.666;18.444;2023-02-04T06:34:05;2.20;99.90
65462;DHT22;53236;43.666;18.444;2023-02-04T06:36:31;2.20;99.90
65462;DHT22;53236;43.666;18.444;2023-02-04T06:38:56;2.20;99.90
65462;DHT22;53236;43.666;18.444;2023-02-04T06:41:22;2.10;99.90
65462;DHT22;53236;43.666;18.444;2023-02-04T06:43:48;2.20;99.90
65462;DHT22;53236;43.666;18.444;2023-02-04T06:46:14;2.20;99.90
65462;DHT22;53236;43.666;18.444;2023-02-04T06:48:40;2.20;99.90
65462;DHT22;53236;43.666;18.444;2023-02-04T06:51:06;2.20;99.90
65462;DHT22;53236;43.666;18.444;2023-02-04T06:53:31;2.20;99.90
65462;DHT22;53236;43.666;18.444;2023-02-04T06:55:57;2.20;99.90
65462;DHT22;53236;43.666;18.444;2023-02-04T06:58:23;2.30;99.90
65462;DHT22;53236;43.666;18.444;2023-02-04T07:00:48;2.30;99.90
65462;DHT22;53236;43.666;18.444;2023-02-04T07:03:14;2.30;99.90
65462;DHT22;53236;43.666;18.444;2023-02-04T07:05:40;2.30;99.90
65462;DHT22;53236;43.666;18.444;2023-02-04T07:08:05;2.30;99.90
65462;DHT22;53236;43.666;18.444;2023-02-04T07:10:31;2.30;99.90
65462;DHT22;53236;43.666;18.444;2023-02-04T07:12:57;2.30;99.90
65462;DHT22;53236;43.666;18.444;2023-02-04T07:15:23;2.30;99.90
65462;DHT22;53236;43.666;18.444;2023-02-04T07:17:49;2.40;99.90
65462;DHT22;53236;43.666;18.444;2023-02-04T07:20:15;2.50;99.90
65462;DHT22;53236;43.666;18.444;2023-02-04T07:22:40;2.60;99.90
65462;DHT22;53236;43.666;18.444;2023-02-04T07:25:07;2.50;99.90
65462;DHT22;53236;43.666;18.444;2023-02-04T07:27:34;2.40;99.90
65462;DHT22;53236;43.666;18.444;2023-02-04T07:30:00;2.50;99.90
65462;DHT22;53236;43.666;18.444;2023-02-04T07:32:26;2.60;99.90
65462;DHT22;53236;43.666;18.444;2023-02-04T07:34:58;2.80;99.90
65462;DHT22;53236;43.666;18.444;2023-02-04T07:37:24;3.20;99.90
65462;DHT22;53236;43.666;18.444;2023-02-04T07:39:50;3.20;99.90
65462;DHT22;53236;43.666;18.444;2023-02-04T07:42:15;3.10;99.90
65462;DHT22;53236;43.666;18.444;2023-02-04T07:44:41;3.30;99.90
65462;DHT22;53236;43.666;18.444;2023-02-04T07:47:07;3.30;99.90
65462;DHT22;53236;43.666;18.444;2023-02-04T07:49:33;3.20;99.90
65462;DHT22;53236;43.666;18.444;2023-02-04T07:51:59;3.30;99.90
65462;DHT22;53236;43.666;18.444;2023-02-04T07:54:24;3.30;99.90
65462;DHT22;53236;43.666;18.444;2023-02-04T07:56:50;3.20;99.90
65462;DHT22;53236;43.666;18.444;2023-02-04T07:59:15;3.20;99.90
65462;DHT22;53236;43.666;18.444;2023-02-04T08:01:41;3.30;99.90
65462;DHT22;53236;43.666;18.444;2023-02-04T08:04:07;3.20;99.90
65462;DHT22;53236;43.666;18.444;2023-02-04T08:06:32;3.20;99.90
65462;DHT22;53236;43.666;18.444;2023-02-04T08:08:58;3.10;99.90
65462;DHT22;53236;43.666;18.444;2023-02-04T08:11:24;3.20;99.90
65462;DHT22;53236;43.666;18.444;2023-02-04T08:13:51;3.20;99.90
65462;DHT22;53236;43.666;18.444;2023-02-04T08:16:17;3.40;99.90
65462;DHT22;53236;43.666;18.444;2023-02-04T08:18:43;3.60;99.90
65462;DHT22;53236;43.666;18.444;2023-02-04T08:21:08;3.70;99.90
65462;DHT22;53236;43.666;18.444;2023-02-04T08:23:34;3.70;99.90
65462;DHT22;53236;43.666;18.444;2023-02-04T08:26:00;4.00;99.90
65462;DHT22;53236;43.666;18.444;2023-02-04T08:28:25;4.10;99.90
65462;DHT22;53236;43.666;18.444;2023-02-04T08:30:51;4.30;99.90
65462;DHT22;53236;43.666;18.444;2023-02-04T08:33:17;4.70;99.90
65462;DHT22;53236;43.666;18.444;2023-02-04T08:35:43;4.60;99.90
65462;DHT22;53236;43.666;18.444;2023-02-04T08:38:08;4.70;99.90
65462;DHT22;53236;43.666;18.444;2023-02-04T08:40:34;4.70;99.90
65462;DHT22;53236;43.666;18.444;2023-02-04T08:42:59;4.70;99.90
65462;DHT22;53236;43.666;18.444;2023-02-04T08:45:25;4.60;99.90
65462;DHT22;53236;43.666;18.444;2023-02-04T08:47:51;4.70;99.90
65462;DHT22;53236;43.666;18.444;2023-02-04T08:50:17;5.00;99.90
65462;DHT22;53236;43.666;18.444;2023-02-04T08:52:42;4.90;99.90
65462;DHT22;53236;43.666;18.444;2023-02-04T08:55:09;4.80;99.90
65462;DHT22;53236;43.666;18.444;2023-02-04T08:57:34;4.70;99.90
65462;DHT22;53236;43.666;18.444;2023-02-04T09:00:00;4.40;99.90
65462;DHT22;53236;43.666;18.444;2023-02-04T09:02:26;4.30;99.90
65462;DHT22;53236;43.666;18.444;2023-02-04T09:04:52;4.60;99.90
65462;DHT22;53236;43.666;18.444;2023-02-04T09:07:17;5.30;99.90
65462;DHT22;53236;43.666;18.444;2023-02-04T09:09:43;6.10;99.90
65462;DHT22;53236;43.666;18.444;2023-02-04T09:12:09;6.30;99.90
65462;DHT22;53236;43.666;18.444;2023-02-04T09:14:34;6.10;99.90
65462;DHT22;53236;43.666;18.444;2023-02-04T09:17:00;6.40;99.90
65462;DHT22;53236;43.666;18.444;2023-02-04T09:19:26;6.30;99.90
65462;DHT22;53236;43.666;18.444;2023-02-04T09:21:52;6.30;99.90
65462;DHT22;53236;43.666;18.444;2023-02-04T09:24:18;6.30;99.90
65462;DHT22;53236;43.666;18.444;2023-02-04T09:26:44;6.50;99.90
65462;DHT22;53236;43.666;18.444;2023-02-04T09:29:10;6.30;99.90
65462;DHT22;53236;43.666;18.444;2023-02-04T09:31:35;6.20;99.90
65462;DHT22;53236;43.666;18.444;2023-02-04T09:34:01;6.20;99.90
65462;DHT22;53236;43.666;18.444;2023-02-04T09:36:27;6.00;99.90
65462;DHT22;53236;43.666;18.444;2023-02-04T09:38:55;5.90;99.90
65462;DHT22;53236;43.666;18.444;2023-02-04T09:41:21;5.90;99.90
65462;DHT22;53236;43.666;18.444;2023-02-04T09:43:46;5.60;99.90
65462;DHT22;53236;43.666;18.444;2023-02-04T09:46:21;5.40;99.90
65462;DHT22;53236;43.666;18.444;2023-02-04T09:48:48;4.80;99.90
65462;DHT22;53236;43.666;18.444;2023-02-04T09:51:22;4.60;99.90
65462;DHT22;53236;43.666;18.444;2023-02-04T09:53:50;4.30;99.90
65462;DHT22;53236;43.666;18.444;2023-02-04T09:56:18;4.10;99.90
65462;DHT22;53236;43.666;18.444;2023-02-04T09:58:44;3.90;99.90
65462;DHT22;53236;43.666;18.444;2023-02-04T10:03:40;3.60;99.90
65462;DHT22;53236;43.666;18.444;2023-02-04T10:06:18;3.70;99.90
65462;DHT22;53236;43.666;18.444;2023-02-04T10:08:45;3.70;99.90
65462;DHT22;53236;43.666;18.444;2023-02-04T10:11:12;3.90;99.90
65462;DHT22;53236;43.666;18.444;2023-02-04T10:13:42;4.10;99.90
65462;DHT22;53236;43.666;18.444;2023-02-04T10:16:19;4.20;99.90
65462;DHT22;53236;43.666;18.444;2023-02-04T10:18:46;4.00;99.90
65462;DHT22;53236;43.666;18.444;2023-02-04T10:21:21;3.90;99.90
65462;DHT22;53236;43.666;18.444;2023-02-04T10:23:50;3.70;99.90
65462;DHT22;53236;43.666;18.444;2023-02-04T10:26:24;3.70;99.90
65462;DHT22;53236;43.666;18.444;2023-02-04T10:29:06;3.50;99.90
65462;DHT22;53236;43.666;18.444;2023-02-04T10:31:38;3.20;99.90
65462;DHT22;53236;43.666;18.444;2023-02-04T10:34:16;3.50;99.90
65462;DHT22;53236;43.666;18.444;2023-02-04T10:36:44;4.50;99.90
65462;DHT22;53236;43.666;18.444;2023-02-04T10:39:15;5.10;99.90
65462;DHT22;53236;43.666;18.444;2023-02-04T10:41:48;5.20;99.90
65462;DHT22;53236;43.666;18.444;2023-02-04T10:44:16;4.90;99.90
65462;DHT22;53236;43.666;18.444;2023-02-04T10:46:42;4.40;99.90
65462;DHT22;53236;43.666;18.444;2023-02-04T10:49:20;4.00;99.90
65462;DHT22;53236;43.666;18.444;2023-02-04T10:51:48;3.80;99.90
65462;DHT22;53236;43.666;18.444;2023-02-04T10:54:14;3.90;99.90
65462;DHT22;53236;43.666;18.444;2023-02-04T10:56:57;3.80;99.90
65462;DHT22;53236;43.666;18.444;2023-02-04T10:59:24;3.70;99.90
65462;DHT22;53236;43.666;18.444;2023-02-04T11:01:54;3.50;99.90
65462;DHT22;53236;43.666;18.444;2023-02-04T11:04:20;3.30;99.90
65462;DHT22;53236;43.666;18.444;2023-02-04T11:06:46;3.10;99.90
65462;DHT22;53236;43.666;18.444;2023-02-04T11:09:13;3.00;99.90
65462;DHT22;53236;43.666;18.444;2023-02-04T11:11:45;2.80;99.90
65462;DHT22;53236;43.666;18.444;2023-02-04T11:14:23;2.60;99.90
65462;DHT22;53236;43.666;18.444;2023-02-04T11:16:50;2.30;99.90
65462;DHT22;53236;43.666;18.444;2023-02-04T11:19:31;2.30;99.90
65462;DHT22;53236;43.666;18.444;2023-02-04T11:22:05;2.00;99.90
65462;DHT22;53236;43.666;18.444;2023-02-04T11:24:32;1.70;99.90
65462;DHT22;53236;43.666;18.444;2023-02-04T11:27:17;1.50;99.90
65462;DHT22;53236;43.666;18.444;2023-02-04T11:29:43;1.40;99.90
65462;DHT22;53236;43.666;18.444;2023-02-04T11:32:28;1.40;99.90
65462;DHT22;53236;43.666;18.444;2023-02-04T11:35:26;1.50;99.90
65462;DHT22;53236;43.666;18.444;2023-02-04T11:37:51;1.60;99.90
65462;DHT22;53236;43.666;18.444;2023-02-04T11:42:48;1.60;99.90
65462;DHT22;53236;43.666;18.444;2023-02-04T11:45:19;1.60;99.90
65462;DHT22;53236;43.666;18.444;2023-02-04T11:47:46;1.80;99.90
65462;DHT22;53236;43.666;18.444;2023-02-04T11:50:14;2.30;99.90
65462;DHT22;53236;43.666;18.444;2023-02-04T11:52:41;2.90;99.90
65462;DHT22;53236;43.666;18.444;2023-02-04T11:55:10;3.00;99.90
65462;DHT22;53236;43.666;18.444;2023-02-04T11:57:43;2.80;99.90
65462;DHT22;53236;43.666;18.444;2023-02-04T12:00:18;2.60;99.90
65462;DHT22;53236;43.666;18.444;2023-02-04T12:02:58;2.30;99.90
65462;DHT22;53236;43.666;18.444;2023-02-04T12:05:42;2.00;99.90
65462;DHT22;53236;43.666;18.444;2023-02-04T12:08:31;1.90;99.90
65462;DHT22;53236;43.666;18.444;2023-02-04T12:13:24;1.80;99.90
65462;DHT22;53236;43.666;18.444;2023-02-04T12:15:58;1.90;99.90
65462;DHT22;53236;43.666;18.444;2023-02-04T12:18:24;2.10;99.90
65462;DHT22;53236;43.666;18.444;2023-02-04T12:20:52;2.40;99.90
65462;DHT22;53236;43.666;18.444;2023-02-04T12:23:18;2.60;99.90
65462;DHT22;53236;43.666;18.444;2023-02-04T12:25:44;2.60;99.90
65462;DHT22;53236;43.666;18.444;2023-02-04T12:28:10;2.60;99.90
65462;DHT22;53236;43.666;18.444;2023-02-04T12:30:35;2.60;99.90
65462;DHT22;53236;43.666;18.444;2023-02-04T12:33:01;2.60;99.90
65462;DHT22;53236;43.666;18.444;2023-02-04T12:35:27;2.70;99.90
65462;DHT22;53236;43.666;18.444;2023-02-04T12:37:53;2.70;99.90
65462;DHT22;53236;43.666;18.444;2023-02-04T12:40:20;2.80;99.90
65462;DHT22;53236;43.666;18.444;2023-02-04T12:42:45;2.70;99.90
65462;DHT22;53236;43.666;18.444;2023-02-04T12:45:13;2.70;99.90
65462;DHT22;53236;43.666;18.444;2023-02-04T12:47:39;2.30;99.90
65462;DHT22;53236;43.666;18.444;2023-02-04T12:50:07;2.10;99.90
65462;DHT22;53236;43.666;18.444;2023-02-04T12:52:33;2.10;99.90
65462;DHT22;53236;43.666;18.444;2023-02-04T12:54:59;1.80;99.90
65462;DHT22;53236;43.666;18.444;2023-02-04T12:57:26;1.70;99.90
65462;DHT22;53236;43.666;18.444;2023-02-04T12:59:51;1.50;99.90
65462;DHT22;53236;43.666;18.444;2023-02-04T13:02:17;1.40;99.90
65462;DHT22;53236;43.666;18.444;2023-02-04T13:04:43;1.60;99.90
65462;DHT22;53236;43.666;18.444;2023-02-04T13:07:09;2.00;99.90
65462;DHT22;53236;43.666;18.444;2023-02-04T13:09:35;2.20;99.90
65462;DHT22;53236;43.666;18.444;2023-02-04T13:12:01;2.10;99.90
65462;DHT22;53236;43.666;18.444;2023-02-04T13:14:27;2.20;99.90
65462;DHT22;53236;43.666;18.444;2023-02-04T13:16:53;2.30;99.90
65462;DHT22;53236;43.666;18.444;2023-02-04T13:19:19;2.40;99.90
65462;DHT22;53236;43.666;18.444;2023-02-04T13:21:44;2.20;99.90
65462;DHT22;53236;43.666;18.444;2023-02-04T13:24:10;1.90;99.90
65462;DHT22;53236;43.666;18.444;2023-02-04T13:26:36;1.90;99.90
65462;DHT22;53236;43.666;18.444;2023-02-04T13:29:01;1.80;99.90
65462;DHT22;53236;43.666;18.444;2023-02-04T13:31:27;1.80;99.90
65462;DHT22;53236;43.666;18.444;2023-02-04T13:33:52;1.80;99.90
65462;DHT22;53236;43.666;18.444;2023-02-04T13:36:18;1.60;99.90
65462;DHT22;53236;43.666;18.444;2023-02-04T13:38:44;1.50;99.90
65462;DHT22;53236;43.666;18.444;2023-02-04T13:41:09;1.40;99.90
65462;DHT22;53236;43.666;18.444;2023-02-04T13:43:35;1.40;99.90
65462;DHT22;53236;43.666;18.444;2023-02-04T13:46:01;1.50;99.90
65462;DHT22;53236;43.666;18.444;2023-02-04T13:48:28;1.30;99.90
65462;DHT22;53236;43.666;18.444;2023-02-04T13:50:54;1.40;99.90
65462;DHT22;53236;43.666;18.444;2023-02-04T13:53:20;1.30;99.90
65462;DHT22;53236;43.666;18.444;2023-02-04T13:55:45;1.30;99.90
65462;DHT22;53236;43.666;18.444;2023-02-04T13:58:12;1.20;99.90
65462;DHT22;53236;43.666;18.444;2023-02-04T14:00:37;1.20;99.90
65462;DHT22;53236;43.666;18.444;2023-02-04T14:03:03;0.90;99.90
65462;DHT22;53236;43.666;18.444;2023-02-04T14:05:29;0.80;99.90
65462;DHT22;53236;43.666;18.444;2023-02-04T14:07:54;0.70;99.90
65462;DHT22;53236;43.666;18.444;2023-02-04T14:10:20;0.70;99.90
65462;DHT22;53236;43.666;18.444;2023-02-04T14:12:50;0.60;99.90
65462;DHT22;53236;43.666;18.444;2023-02-04T14:15:16;0.50;99.90
65462;DHT22;53236;43.666;18.444;2023-02-04T14:17:41;0.50;99.90
65462;DHT22;53236;43.666;18.444;2023-02-04T14:20:08;0.50;99.90
65462;DHT22;53236;43.666;18.444;2023-02-04T14:22:33;0.40;99.90
65462;DHT22;53236;43.666;18.444;2023-02-04T14:24:59;0.40;99.90
65462;DHT22;53236;43.666;18.444;2023-02-04T14:27:25;0.40;99.90
65462;DHT22;53236;43.666;18.444;2023-02-04T14:29:51;0.30;99.90
65462;DHT22;53236;43.666;18.444;2023-02-04T14:32:17;0.30;99.90
65462;DHT22;53236;43.666;18.444;2023-02-04T14:34:45;0.40;99.90
65462;DHT22;53236;43.666;18.444;2023-02-04T14:37:11;0.30;99.90
65462;DHT22;53236;43.666;18.444;2023-02-04T14:39:37;0.30;99.90
65462;DHT22;53236;43.666;18.444;2023-02-04T14:42:02;0.20;99.90
65462;DHT22;53236;43.666;18.444;2023-02-04T14:44:30;0.20;99.90
65462;DHT22;53236;43.666;18.444;2023-02-04T14:46:55;0.20;99.90
65462;DHT22;53236;43.666;18.444;2023-02-04T14:49:21;0.20;99.90
65462;DHT22;53236;43.666;18.444;2023-02-04T14:51:47;0.10;99.90
65462;DHT22;53236;43.666;18.444;2023-02-04T14:54:12;0.20;99.90
65462;DHT22;53236;43.666;18.444;2023-02-04T14:56:39;0.10;99.90
65462;DHT22;53236;43.666;18.444;2023-02-04T14:59:04;0.10;99.90
65462;DHT22;53236;43.666;18.444;2023-02-04T15:01:30;0.00;99.90
65462;DHT22;53236;43.666;18.444;2023-02-04T15:03:56;-0.10;99.90
65462;DHT22;53236;43.666;18.444;2023-02-04T15:06:22;-0.20;99.90
65462;DHT22;53236;43.666;18.444;2023-02-04T15:08:48;-0.20;99.90
65462;DHT22;53236;43.666;18.444;2023-02-04T15:11:13;-0.40;99.90
65462;DHT22;53236;43.666;18.444;2023-02-04T15:13:39;-0.50;99.90
65462;DHT22;53236;43.666;18.444;2023-02-04T15:16:05;-0.60;99.90
65462;DHT22;53236;43.666;18.444;2023-02-04T15:18:30;-0.60;99.90
65462;DHT22;53236;43.666;18.444;2023-02-04T15:20:56;-0.70;99.90
65462;DHT22;53236;43.666;18.444;2023-02-04T15:23:22;-0.70;99.90
65462;DHT22;53236;43.666;18.444;2023-02-04T15:25:48;-0.80;99.90
65462;DHT22;53236;43.666;18.444;2023-02-04T15:28:16;-0.80;99.90
65462;DHT22;53236;43.666;18.444;2023-02-04T15:30:42;-0.90;99.90
65462;DHT22;53236;43.666;18.444;2023-02-04T15:33:07;-1.00;99.90
65462;DHT22;53236;43.666;18.444;2023-02-04T15:35:33;-1.10;99.90
65462;DHT22;53236;43.666;18.444;2023-02-04T15:37:59;-1.10;99.90